createdAt,value
2023-04-21T00:01:19.701Z,8.20
2023-04-21T00:03:48.145Z,8.20
2023-04-21T00:06:22.493Z,8.10
2023-04-21T00:08:52.642Z,8.10
2023-04-21T00:11:20.880Z,8.10
2023-04-21T00:13:49.075Z,8.10
2023-04-21T00:16:17.292Z,8.10
2023-04-21T00:18:45.584Z,8.00
2023-04-21T00:21:13.930Z,7.90
2023-04-21T00:23:42.158Z,7.90
2023-04-21T00:26:11.940Z,7.90
2023-04-21T00:28:42.508Z,7.90
2023-04-21T00:31:10.868Z,7.80
2023-04-21T00:33:39.166Z,7.80
2023-04-21T00:36:07.807Z,7.80
2023-04-21T00:38:36.474Z,7.80
2023-04-21T00:41:04.825Z,7.70
2023-04-21T00:43:34.520Z,7.70
2023-04-21T00:46:02.752Z,7.70
2023-04-21T00:48:31.083Z,7.60
2023-04-21T00:51:00.993Z,7.60
2023-04-21T00:53:29.931Z,7.60
2023-04-21T00:55:58.225Z,7.60
2023-04-21T00:58:26.602Z,7.60
2023-04-21T01:00:57.687Z,7.50
2023-04-21T01:03:26.314Z,7.50
2023-04-21T01:05:54.897Z,7.40
2023-04-21T01:08:23.396Z,7.40
2023-04-21T01:10:51.703Z,7.40
2023-04-21T01:13:22.085Z,7.30
2023-04-21T01:15:50.714Z,7.40
2023-04-21T01:18:20.465Z,7.40
2023-04-21T01:20:51.263Z,7.50
2023-04-21T01:23:21.207Z,7.40
2023-04-21T01:25:49.580Z,7.40
2023-04-21T01:28:23.143Z,7.30
2023-04-21T01:30:51.445Z,7.30
2023-04-21T01:33:22.156Z,7.30
2023-04-21T01:35:50.918Z,7.30
2023-04-21T01:38:22.848Z,7.20
2023-04-21T01:40:54.052Z,7.20
2023-04-21T01:43:25.118Z,7.20
2023-04-21T01:45:54.591Z,7.20
2023-04-21T01:48:22.906Z,7.20
2023-04-21T01:50:51.162Z,7.10
2023-04-21T01:53:19.499Z,7.10
2023-04-21T01:55:49.241Z,7.10
2023-04-21T01:58:19.077Z,7.00
2023-04-21T02:00:47.349Z,7.10
2023-04-21T02:03:15.642Z,7.10
2023-04-21T02:05:44.049Z,7.00
2023-04-21T02:08:12.923Z,7.00
2023-04-21T02:10:42.650Z,7.00
2023-04-21T02:13:15.536Z,7.00
2023-04-21T02:15:43.884Z,6.90
2023-04-21T02:18:12.223Z,6.80
2023-04-21T02:20:40.990Z,6.70
2023-04-21T02:23:09.205Z,6.70
2023-04-21T02:25:37.501Z,6.60
2023-04-21T02:28:06.805Z,6.60
2023-04-21T02:30:37.298Z,6.60
2023-04-21T02:33:05.742Z,6.50
2023-04-21T02:35:34.572Z,6.50
2023-04-21T02:38:07.322Z,6.50
2023-04-21T02:40:35.919Z,6.40
2023-04-21T02:43:04.273Z,6.40
2023-04-21T02:45:33.002Z,6.40
2023-04-21T02:48:02.774Z,6.30
2023-04-21T02:50:31.873Z,6.40
2023-04-21T02:53:00.137Z,6.30
2023-04-21T02:55:28.452Z,6.40
2023-04-21T02:57:56.906Z,6.30
2023-04-21T03:00:26.293Z,6.20
2023-04-21T03:02:54.768Z,6.20
2023-04-21T03:05:24.589Z,6.10
2023-04-21T03:07:52.879Z,6.00
2023-04-21T03:10:21.270Z,6.00
2023-04-21T03:12:49.612Z,5.90
2023-04-21T03:15:19.554Z,5.90
2023-04-21T03:17:48.024Z,5.80
2023-04-21T03:20:17.128Z,5.80
2023-04-21T03:22:46.773Z,5.80
2023-04-21T03:25:15.179Z,5.80
2023-04-21T03:27:43.482Z,5.80
2023-04-21T03:30:13.222Z,5.80
2023-04-21T03:32:41.495Z,5.70
2023-04-21T03:35:09.891Z,5.70
2023-04-21T03:37:38.184Z,5.70
2023-04-21T03:40:09.565Z,5.60
2023-04-21T03:42:38.476Z,5.60
2023-04-21T03:45:08.820Z,5.40
2023-04-21T03:47:37.263Z,5.50
2023-04-21T03:50:06.010Z,5.50
2023-04-21T03:52:34.683Z,5.50
2023-04-21T03:55:02.929Z,5.50
2023-04-21T03:57:32.592Z,5.50
2023-04-21T04:00:00.811Z,5.60
2023-04-21T04:02:29.248Z,5.60
2023-04-21T04:04:58.123Z,5.60
2023-04-21T04:07:26.535Z,5.60
2023-04-21T04:09:54.714Z,5.90
2023-04-21T04:12:23.149Z,5.60
2023-04-21T04:14:52.897Z,5.60
2023-04-21T04:17:21.155Z,5.60
2023-04-21T04:19:49.640Z,5.60
2023-04-21T04:22:18.106Z,5.60
2023-04-21T04:24:48.032Z,5.60
2023-04-21T04:27:16.714Z,5.70
2023-04-21T04:29:46.616Z,5.70
2023-04-21T04:32:16.374Z,5.80
2023-04-21T04:34:44.694Z,5.80
2023-04-21T04:37:13.281Z,5.90
2023-04-21T04:39:41.471Z,6.00
2023-04-21T04:42:10.172Z,5.90
2023-04-21T04:44:38.458Z,6.10
2023-04-21T04:47:07.484Z,6.10
2023-04-21T04:49:37.184Z,6.20
2023-04-21T04:52:05.547Z,6.30
2023-04-21T04:54:33.790Z,6.40
2023-04-21T04:57:02.488Z,6.40
2023-04-21T04:59:31.014Z,6.50
2023-04-21T05:01:59.343Z,6.60
2023-04-21T05:04:27.982Z,6.70
2023-04-21T05:06:58.066Z,6.80
2023-04-21T05:09:26.538Z,6.90
2023-04-21T05:11:54.941Z,7.00
2023-04-21T05:14:23.184Z,7.10
2023-04-21T05:16:51.497Z,7.20
2023-04-21T05:19:19.854Z,7.30
2023-04-21T05:21:48.086Z,7.30
2023-04-21T05:24:23.261Z,7.60
2023-04-21T05:26:51.497Z,7.60
2023-04-21T05:29:19.800Z,7.80
2023-04-21T05:31:48.104Z,7.90
2023-04-21T05:34:16.557Z,8.00
2023-04-21T05:36:45.053Z,8.10
2023-04-21T05:39:13.323Z,8.30
2023-04-21T05:41:43.647Z,8.50
2023-04-21T05:44:12.203Z,8.60
2023-04-21T05:46:40.736Z,8.80
2023-04-21T05:49:09.163Z,8.90
2023-04-21T05:51:37.452Z,9.00
2023-04-21T05:54:05.830Z,9.20
2023-04-21T05:56:34.175Z,9.40
2023-04-21T05:59:21.011Z,9.70
2023-04-21T06:01:49.320Z,10.60
2023-04-21T06:04:17.691Z,10.90
2023-04-21T06:06:46.046Z,11.20
2023-04-21T06:09:15.708Z,11.40
2023-04-21T06:11:44.060Z,11.50
2023-04-21T06:14:13.867Z,11.80
2023-04-21T06:16:42.154Z,11.80
2023-04-21T06:19:10.584Z,11.80
2023-04-21T06:21:38.881Z,11.70
2023-04-21T06:24:07.697Z,12.10
2023-04-21T06:26:35.978Z,12.40
2023-04-21T06:29:04.314Z,12.60
2023-04-21T06:31:34.256Z,12.80
2023-04-21T06:34:02.572Z,12.70
2023-04-21T06:36:30.934Z,12.60
2023-04-21T06:38:59.152Z,12.40
2023-04-21T06:41:27.595Z,12.20
2023-04-21T06:43:55.853Z,12.10
2023-04-21T06:46:24.187Z,12.00
2023-04-21T06:48:53.972Z,12.00
2023-04-21T06:51:22.248Z,11.90
2023-04-21T06:53:50.755Z,11.90
2023-04-21T06:56:19.870Z,11.90
2023-04-21T06:58:48.173Z,11.90
2023-04-21T07:01:16.469Z,11.90
2023-04-21T07:03:45.066Z,11.90
2023-04-21T07:06:14.794Z,11.90
2023-04-21T07:09:00.585Z,12.20
2023-04-21T07:11:29.177Z,13.60
2023-04-21T07:14:02.535Z,15.60
2023-04-21T07:16:31.948Z,17.30
2023-04-21T07:19:00.327Z,17.70
2023-04-21T07:21:30.473Z,17.30
2023-04-21T07:23:59.487Z,16.90
2023-04-21T07:26:27.760Z,16.30
2023-04-21T07:28:58.530Z,16.00
2023-04-21T07:31:27.004Z,15.40
2023-04-21T07:33:55.313Z,15.10
2023-04-21T07:36:23.738Z,14.80
2023-04-21T07:38:53.676Z,14.50
2023-04-21T07:41:21.896Z,14.30
2023-04-21T07:43:51.921Z,14.20
2023-04-21T07:46:23.634Z,14.10
2023-04-21T07:48:52.044Z,14.10
2023-04-21T07:51:20.431Z,14.10
2023-04-21T07:53:48.713Z,14.10
2023-04-21T07:56:18.440Z,14.10
2023-04-21T07:58:47.333Z,14.10
2023-04-21T08:01:15.684Z,14.20
2023-04-21T08:03:44.136Z,14.20
2023-04-21T08:06:12.748Z,14.20
2023-04-21T08:08:41.339Z,14.20
2023-04-21T08:11:10.945Z,14.30
2023-04-21T08:13:49.836Z,14.50
2023-04-21T08:16:18.128Z,14.60
2023-04-21T08:18:49.829Z,14.60
2023-04-21T08:21:18.023Z,14.70
2023-04-21T08:23:46.428Z,14.80
2023-04-21T08:26:14.867Z,14.90
2023-04-21T08:28:44.559Z,15.00
2023-04-21T08:31:12.893Z,15.10
2023-04-21T08:33:49.801Z,15.20
2023-04-21T08:36:29.895Z,15.30
2023-04-21T08:38:59.152Z,15.40
2023-04-21T08:41:28.112Z,15.50
2023-04-21T08:43:57.830Z,15.80
2023-04-21T08:46:26.999Z,16.10
2023-04-21T08:48:55.662Z,16.10
2023-04-21T08:51:25.163Z,16.10
2023-04-21T08:54:04.534Z,16.10
2023-04-21T08:56:32.886Z,16.10
2023-04-21T08:59:02.648Z,16.10
2023-04-21T09:01:31.922Z,16.10
2023-04-21T09:04:18.213Z,16.20
2023-04-21T09:06:46.735Z,16.80
2023-04-21T09:09:15.101Z,17.20
2023-04-21T09:11:43.418Z,17.80
2023-04-21T09:14:13.985Z,18.40
2023-04-21T09:16:45.101Z,18.90
2023-04-21T09:19:16.375Z,19.80
2023-04-21T09:21:45.797Z,21.30
2023-04-21T09:24:14.584Z,22.90
2023-04-21T09:26:44.146Z,25.00
2023-04-21T09:29:15.698Z,27.40
2023-04-21T09:31:45.805Z,29.00
2023-04-21T09:34:21.776Z,30.20
2023-04-21T09:36:50.176Z,31.90
2023-04-21T09:39:34.256Z,32.50
2023-04-21T09:42:04.372Z,33.90
2023-04-21T09:44:46.820Z,34.00
2023-04-21T09:47:22.192Z,33.40
2023-04-21T09:49:53.578Z,33.50
2023-04-21T09:52:22.816Z,34.50
2023-04-21T09:54:53.378Z,34.30
2023-04-21T09:57:26.106Z,34.30
2023-04-21T10:00:01.992Z,35.20
2023-04-21T10:02:36.665Z,34.80
2023-04-21T10:05:06.477Z,34.60
2023-04-21T10:07:34.822Z,34.10
2023-04-21T10:10:03.866Z,34.10
2023-04-21T10:12:34.590Z,33.40
2023-04-21T10:15:09.690Z,31.70
2023-04-21T10:17:38.176Z,30.20
2023-04-21T10:20:10.387Z,28.50
2023-04-21T10:22:39.908Z,27.30
2023-04-21T10:25:10.558Z,26.60
2023-04-21T10:27:43.014Z,25.50
2023-04-21T10:30:22.492Z,24.70
2023-04-21T10:33:02.949Z,23.60
2023-04-21T10:35:59.435Z,22.60
2023-04-21T10:38:36.071Z,22.00
2023-04-21T10:41:30.078Z,21.60
2023-04-21T10:43:59.650Z,21.10
2023-04-21T10:46:37.072Z,20.70
2023-04-21T10:49:10.157Z,20.30
2023-04-21T10:52:07.227Z,20.10
2023-04-21T10:54:45.900Z,19.90
2023-04-21T10:57:15.901Z,19.90
2023-04-21T10:59:52.366Z,19.70
2023-04-21T11:02:23.656Z,19.60
2023-04-21T11:04:53.349Z,19.40
2023-04-21T11:07:23.340Z,19.20
2023-04-21T11:09:59.474Z,19.20
2023-04-21T11:12:32.549Z,19.30
2023-04-21T11:15:01.036Z,19.40
2023-04-21T11:17:30.769Z,19.50
2023-04-21T11:19:59.035Z,19.40
2023-04-21T11:22:28.090Z,19.30
2023-04-21T11:24:58.957Z,19.30
2023-04-21T11:30:22.263Z,19.10
2023-04-21T11:32:56.802Z,19.20
2023-04-21T11:35:25.441Z,19.30
2023-04-21T11:37:53.942Z,19.30
2023-04-21T11:40:23.418Z,19.30
2023-04-21T11:42:52.006Z,19.30
2023-04-21T11:45:22.431Z,19.20
2023-04-21T11:47:51.270Z,19.30
2023-04-21T11:50:33.488Z,19.40
2023-04-21T11:53:04.021Z,19.50
2023-04-21T11:55:33.128Z,19.50
2023-04-21T11:58:01.425Z,19.60
2023-04-21T12:00:31.986Z,19.60
2023-04-21T12:03:00.544Z,19.50
2023-04-21T12:05:37.631Z,19.50
2023-04-21T12:08:06.460Z,19.40
2023-04-21T12:10:35.066Z,19.20
2023-04-21T12:13:03.301Z,19.30
2023-04-21T12:15:31.966Z,19.50
2023-04-21T12:18:00.261Z,19.70
2023-04-21T12:20:31.221Z,19.70
2023-04-21T12:23:01.321Z,19.70
2023-04-21T12:25:29.700Z,19.70
2023-04-21T12:28:00.110Z,19.70
2023-04-21T12:30:28.553Z,19.60
2023-04-21T12:32:56.931Z,19.50
2023-04-21T12:35:26.626Z,19.50
2023-04-21T12:37:55.292Z,19.50
2023-04-21T12:40:25.019Z,19.50
2023-04-21T12:42:53.197Z,19.60
2023-04-21T12:45:21.629Z,19.70
2023-04-21T12:47:50.103Z,19.80
2023-04-21T12:50:18.651Z,19.80
2023-04-21T12:52:46.784Z,19.80
2023-04-21T12:55:15.132Z,19.80
2023-04-21T12:57:44.995Z,19.80
2023-04-21T13:00:15.060Z,19.80
2023-04-21T13:02:43.667Z,19.90
2023-04-21T13:05:13.481Z,19.90
2023-04-21T13:07:42.174Z,19.80
2023-04-21T13:10:11.252Z,19.70
2023-04-21T13:12:39.571Z,19.80
2023-04-21T13:15:10.835Z,19.90
2023-04-21T13:17:39.146Z,19.90
2023-04-21T13:20:08.452Z,19.70
2023-04-21T13:22:36.823Z,19.70
2023-04-21T13:25:05.664Z,19.70
2023-04-21T13:27:34.534Z,19.70
2023-04-21T13:30:02.814Z,19.60
2023-04-21T13:32:32.599Z,19.70
2023-04-21T13:35:01.011Z,19.70
2023-04-21T13:37:29.525Z,19.90
2023-04-21T13:39:57.838Z,20.60
2023-04-21T13:42:26.125Z,19.90
2023-04-21T13:44:54.531Z,19.80
2023-04-21T13:47:22.886Z,19.70
2023-04-21T13:49:52.610Z,19.70
2023-04-21T13:52:20.858Z,19.90
2023-04-21T13:54:49.127Z,19.90
2023-04-21T13:57:17.391Z,19.80
2023-04-21T13:59:45.707Z,19.80
2023-04-21T14:02:14.049Z,19.70
2023-04-21T14:04:42.542Z,19.80
2023-04-21T14:07:14.906Z,19.80
2023-04-21T14:09:43.262Z,19.90
2023-04-21T14:12:11.551Z,19.80
2023-04-21T14:14:40.028Z,19.80
2023-04-21T14:17:09.171Z,19.60
2023-04-21T14:19:37.562Z,19.60
2023-04-21T14:22:05.894Z,19.60
2023-04-21T14:24:35.616Z,19.40
2023-04-21T14:27:03.964Z,19.40
2023-04-21T14:29:32.474Z,19.40
2023-04-21T14:32:01.141Z,19.30
2023-04-21T14:34:29.449Z,19.30
2023-04-21T14:36:57.997Z,19.30
2023-04-21T14:39:26.275Z,19.40
2023-04-21T14:41:56.162Z,19.40
2023-04-21T14:44:24.416Z,19.40
2023-04-21T14:47:05.699Z,19.30
2023-04-21T14:49:38.171Z,19.30
2023-04-21T14:52:06.907Z,19.40
2023-04-21T14:54:35.160Z,19.40
2023-04-21T14:57:19.018Z,19.40
2023-04-21T14:59:50.080Z,19.40
2023-04-21T15:02:19.161Z,19.40
2023-04-21T15:04:47.855Z,19.40
2023-04-21T15:07:19.933Z,19.40
2023-04-21T15:09:51.441Z,19.40
2023-04-21T15:12:21.091Z,19.30
2023-04-21T15:14:49.408Z,19.20
2023-04-21T15:17:17.686Z,19.20
2023-04-21T15:19:45.984Z,19.10
2023-04-21T15:22:15.427Z,19.00
2023-04-21T15:24:43.895Z,19.00
2023-04-21T15:27:12.234Z,19.00
2023-04-21T15:29:41.959Z,19.00
2023-04-21T15:32:10.329Z,19.10
2023-04-21T15:34:38.698Z,19.20
2023-04-21T15:37:07.084Z,19.20
2023-04-21T15:39:35.617Z,19.10
2023-04-21T15:42:04.432Z,19.10
2023-04-21T15:44:34.142Z,19.10
2023-04-21T15:47:04.453Z,19.10
2023-04-21T15:49:32.822Z,19.00
2023-04-21T15:52:02.027Z,18.90
2023-04-21T15:54:31.233Z,18.80
2023-04-21T15:56:59.481Z,18.80
2023-04-21T15:59:27.830Z,18.80
2023-04-21T16:01:58.084Z,18.70
2023-04-21T16:04:28.364Z,18.60
2023-04-21T16:06:56.875Z,18.60
2023-04-21T16:09:25.268Z,18.50
2023-04-21T16:11:53.580Z,18.50
2023-04-21T16:14:22.031Z,18.30
2023-04-21T16:16:50.423Z,18.30
2023-04-21T16:19:18.832Z,18.20
2023-04-21T16:21:48.768Z,18.20
2023-04-21T16:24:17.124Z,18.10
2023-04-21T16:26:45.654Z,18.10
2023-04-21T16:29:13.930Z,18.00
2023-04-21T16:31:42.269Z,17.90
2023-04-21T16:34:13.797Z,17.80
2023-04-21T16:36:42.120Z,17.70
2023-04-21T16:39:11.942Z,17.50
2023-04-21T16:41:40.169Z,17.40
2023-04-21T16:44:08.478Z,17.30
2023-04-21T16:46:36.952Z,17.10
2023-04-21T16:49:05.481Z,17.00
2023-04-21T16:51:33.913Z,16.80
2023-04-21T16:54:02.178Z,16.80
2023-04-21T16:56:31.863Z,16.60
2023-04-21T16:59:00.150Z,16.40
2023-04-21T17:01:28.541Z,16.40
2023-04-21T17:03:57.128Z,16.30
2023-04-21T17:06:25.553Z,16.20
2023-04-21T17:08:59.680Z,16.10
2023-04-21T17:11:28.809Z,16.00
2023-04-21T17:13:58.447Z,15.90
2023-04-21T17:16:26.985Z,15.80
2023-04-21T17:18:55.534Z,15.70
2023-04-21T17:21:23.778Z,15.60
2023-04-21T17:23:52.183Z,15.50
2023-04-21T17:26:21.667Z,15.40
2023-04-21T17:28:50.083Z,15.30
2023-04-21T17:31:19.672Z,15.20
2023-04-21T17:33:48.070Z,15.10
2023-04-21T17:36:17.032Z,15.00
2023-04-21T17:38:48.273Z,14.90
2023-04-21T17:41:16.512Z,14.80
2023-04-21T17:43:44.730Z,14.70
2023-04-21T17:46:12.975Z,14.60
2023-04-21T17:48:42.733Z,14.50
2023-04-21T17:51:11.867Z,14.40
2023-04-21T17:53:40.039Z,14.30
2023-04-21T17:56:10.976Z,14.20
2023-04-21T17:58:40.571Z,14.10
2023-04-21T18:01:08.808Z,14.00
2023-04-21T18:03:37.463Z,13.90
2023-04-21T18:06:09.958Z,13.90
2023-04-21T18:08:38.633Z,13.80
2023-04-21T18:11:07.361Z,13.70
2023-04-21T18:13:35.632Z,13.60
2023-04-21T18:16:03.986Z,13.50
2023-04-21T18:18:32.216Z,13.40
2023-04-21T18:21:00.451Z,13.30
2023-04-21T18:23:30.196Z,13.20
2023-04-21T18:25:59.564Z,13.10
2023-04-21T18:28:29.445Z,13.00
2023-04-21T18:30:57.880Z,13.00
2023-04-21T18:33:26.252Z,12.90
2023-04-21T18:35:54.634Z,12.80
2023-04-21T18:38:22.896Z,12.70
2023-04-21T18:40:52.615Z,12.70
2023-04-21T18:43:21.268Z,12.60
2023-04-21T18:45:49.501Z,12.60
2023-04-21T18:48:17.869Z,12.40
2023-04-21T18:50:46.950Z,12.40
2023-04-21T18:53:15.236Z,12.30
2023-04-21T18:55:43.578Z,12.20
2023-04-21T18:58:13.272Z,12.10
2023-04-21T19:00:41.660Z,12.10
2023-04-21T19:03:11.293Z,12.00
2023-04-21T19:05:40.759Z,11.90
2023-04-21T19:08:10.304Z,11.70
2023-04-21T19:10:38.904Z,11.60
2023-04-21T19:13:07.246Z,11.50
2023-04-21T19:15:37.024Z,11.40
2023-04-21T19:18:05.569Z,11.20
2023-04-21T19:20:35.641Z,11.20
2023-04-21T19:23:04.126Z,11.10
2023-04-21T19:25:33.270Z,11.10
2023-04-21T19:28:02.331Z,11.00
2023-04-21T19:30:30.848Z,11.00
2023-04-21T19:33:00.602Z,11.00
2023-04-21T19:35:29.328Z,10.90
2023-04-21T19:37:57.636Z,10.80
2023-04-21T19:40:27.035Z,10.70
2023-04-21T19:42:55.741Z,10.60
2023-04-21T19:45:24.033Z,10.50
2023-04-21T19:47:52.251Z,10.50
2023-04-21T19:50:22.551Z,10.50
2023-04-21T19:52:50.821Z,10.40
2023-04-21T19:55:19.253Z,10.40
2023-04-21T19:57:47.628Z,10.40
2023-04-21T20:00:16.895Z,10.40
2023-04-21T20:02:45.335Z,10.40
2023-04-21T20:05:13.778Z,10.30
2023-04-21T20:07:43.571Z,10.20
2023-04-21T20:10:13.749Z,10.20
2023-04-21T20:12:42.031Z,10.20
2023-04-21T20:15:12.118Z,10.20
2023-04-21T20:17:41.765Z,10.10
2023-04-21T20:20:12.347Z,10.10
2023-04-21T20:22:40.707Z,10.10
2023-04-21T20:25:11.167Z,10.00
2023-04-21T20:27:39.573Z,10.00
2023-04-21T20:30:09.212Z,10.00
2023-04-21T20:32:37.863Z,9.90
2023-04-21T20:35:08.112Z,9.80
2023-04-21T20:37:37.081Z,9.70
2023-04-21T20:40:08.321Z,9.70
2023-04-21T20:42:38.577Z,9.70
2023-04-21T20:45:09.474Z,9.60
2023-04-21T20:47:37.784Z,9.60
2023-04-21T20:50:07.449Z,9.50
2023-04-21T20:52:35.797Z,9.50
2023-04-21T20:55:04.170Z,9.40
2023-04-21T20:57:33.023Z,9.30
2023-04-21T21:00:05.408Z,9.30
2023-04-21T21:02:34.062Z,9.30
2023-04-21T21:05:02.646Z,9.30
2023-04-21T21:07:31.985Z,9.30
2023-04-21T21:10:00.341Z,9.20
2023-04-21T21:12:28.636Z,9.20
2023-04-21T21:14:56.932Z,9.20
2023-04-21T21:17:26.805Z,9.10
2023-04-21T21:19:55.109Z,9.00
2023-04-21T21:22:23.417Z,9.00
2023-04-21T21:24:51.778Z,9.00
2023-04-21T21:27:20.104Z,8.90
2023-04-21T21:29:48.356Z,8.90
2023-04-21T21:32:16.985Z,8.90
2023-04-21T21:34:46.787Z,8.80
2023-04-21T21:37:15.051Z,8.80
2023-04-21T21:39:43.256Z,8.70
2023-04-21T21:42:11.567Z,8.70
2023-04-21T21:44:39.880Z,8.50
2023-04-21T21:47:08.163Z,8.60
2023-04-21T21:49:38.444Z,8.60
2023-04-21T21:52:08.665Z,8.50
2023-04-21T21:54:37.141Z,8.50
2023-04-21T21:57:05.543Z,8.40
2023-04-21T21:59:34.222Z,8.40
2023-04-21T22:02:02.505Z,8.30
2023-04-21T22:04:31.194Z,8.20
2023-04-21T22:06:59.521Z,8.10
2023-04-21T22:09:29.242Z,8.10
2023-04-21T22:11:57.620Z,8.10
2023-04-21T22:14:25.869Z,8.00
2023-04-21T22:16:54.231Z,8.00
2023-04-21T22:19:22.761Z,8.00
2023-04-21T22:21:51.070Z,7.90
2023-04-21T22:24:19.753Z,7.60
2023-04-21T22:26:49.472Z,7.50
2023-04-21T22:29:17.792Z,7.40
2023-04-21T22:31:46.104Z,7.30
2023-04-21T22:34:15.120Z,7.00
2023-04-21T22:36:43.603Z,7.10
2023-04-21T22:39:11.835Z,7.00
2023-04-21T22:41:40.283Z,7.00
2023-04-21T22:44:09.985Z,7.00
2023-04-21T22:46:38.389Z,6.90
2023-04-21T22:49:06.777Z,7.00
2023-04-21T22:51:35.144Z,7.00
2023-04-21T22:54:03.448Z,6.90
2023-04-21T22:56:32.158Z,6.90
2023-04-21T22:59:00.568Z,7.00
2023-04-21T23:01:32.076Z,7.00
2023-04-21T23:04:00.542Z,7.00
2023-04-21T23:06:28.880Z,7.10
2023-04-21T23:08:57.190Z,7.10
2023-04-21T23:11:25.817Z,7.20
2023-04-21T23:13:54.038Z,7.20
2023-04-21T23:16:22.298Z,7.20
2023-04-21T23:18:52.006Z,7.10
2023-04-21T23:21:20.302Z,7.00
2023-04-21T23:23:48.534Z,6.90
2023-04-21T23:26:17.272Z,6.90
2023-04-21T23:28:45.487Z,6.80
2023-04-21T23:31:13.752Z,6.70
2023-04-21T23:33:41.976Z,6.60
2023-04-21T23:36:11.768Z,6.70
2023-04-21T23:38:40.139Z,6.80
2023-04-21T23:41:08.345Z,6.80
2023-04-21T23:43:37.273Z,6.80
2023-04-21T23:46:05.677Z,6.80
2023-04-21T23:48:34.890Z,6.80
2023-04-21T23:51:03.333Z,6.70
2023-04-21T23:53:33.016Z,6.70
2023-04-21T23:56:01.319Z,6.60
2023-04-21T23:58:29.544Z,6.40
